Accueil
METAR-TAF:

METAR-TAF

Aéroports :

Aéroport international de Curaçao

Curaçao, Antilles néerlandaises

latitude: 12-12N, longitude: 068-58W, altitude: 9 m

Observation

Le bulletin a été fait il y a 11 minutes, à 18:00 UTC
Vent 13 kt de est
Température 30°C
Humidité 66%
Pression 1012 hPa
Visibilité 10 km ou plus

METAR: TNCC 191800Z 09013KT 9999 NCD 30/23 Q1012 NOSIG

Heure: 14:11 (18:11 UTC)

Prévision

Le bulletin a été fait il y a 2 heures et 41 minutes, à 15:30 UTC
Prévision valable du 19 à 18 UTC au 20 à 18 UTC
Vent 14 kt de sud-est
Visibilité 10 km ou plus
Nuages épars à une hauteur de 2200 ft
Probabilité 30% :
Temporairement
du 20 à 06 UTC au 20 à 15 UTC
Nuages fragmentés à une hauteur de 1500 ft
averses de pluie

TAF: TNCC 191530Z 1918/2018 13014KT 9999 SCT022 PROB30 TEMPO 2006/2015 SHRA BKN015

Observations et prévisions météorologiques de plus de 4000 aéroports (messages METAR et TAF).

Les stations disponibles sont représentées par des disques jaunes et rouges sur la carte.

Passer la souris dessus pour voir le nom de la station.

Cliquer dessus pour voir les observations et prévisions météorologiques.

Pour changer de carte: cliquez sur les boutons verts avec une croix noire pour zoomer, sur le bouton vert avec un tiret pour effectuer un zoom arrière, ou sur les flèches vertes pour les cartes adjacentes.


METAR-TAF: